Time;durP1;ratioP1;P1;durP2;ratioP2;P2;SDS_P1;SDS_P2;PMS_P1;PMS_P2;Temp;Humidity;BMP_temperature;BMP_pressure;BME280_temperature;BME280_humidity;BME280_pressure;Samples;Min_cycle;Max_cycle;Signal;HPM_P1;HPM_P2
2021/12/07 00:01:59;;;;;;;10.90;1.55;;;;;;;;;;5022786;28;20026;-67
2021/12/07 00:04:25;;;;;;;16.65;1.95;;;;;;;;;;5024230;28;20034;-68
2021/12/07 00:06:51;;;;;;;12.60;1.85;;;;;;;;;;5025614;28;20025;-67
2021/12/07 00:09:18;;;;;;;19.10;2.28;;;;;;;;;;5022964;28;20033;-66
2021/12/07 00:11:45;;;;;;;15.38;1.38;;;;;;;;;;5026166;28;20032;-66
2021/12/07 00:14:15;;;;;;;13.77;1.20;;;;;;;;;;5025379;28;20397;-67
2021/12/07 00:16:43;;;;;;;7.45;1.13;;;;;;;;;;5019659;28;20175;-67
2021/12/07 00:19:10;;;;;;;14.43;1.17;;;;;;;;;;5025412;28;20029;-67
2021/12/07 00:21:39;;;;;;;12.50;1.60;;;;;;;;;;5025280;28;20122;-67
2021/12/07 00:24:06;;;;;;;15.20;1.55;;;;;;;;;;5025444;28;20473;-67
2021/12/07 00:26:32;;;;;;;16.58;2.15;;;;;;;;;;5024723;28;20050;-67
2021/12/07 00:28:59;;;;;;;17.48;1.60;;;;;;;;;;5026682;28;20542;-66
2021/12/07 00:31:31;;;;;;;8.60;1.27;;;;;;;;;;5024248;28;20033;-67
2021/12/07 00:36:44;;;;;;;18.85;2.20;;;;;;;;;;5024441;28;20083;-67
2021/12/07 00:39:11;;;;;;;13.50;1.35;;;;;;;;;;5024030;28;20033;-68
2021/12/07 00:41:37;;;;;;;5.03;1.00;;;;;;;;;;5025726;28;20171;-66
2021/12/07 00:44:03;;;;;;;15.57;1.30;;;;;;;;;;5021608;28;20495;-67
2021/12/07 00:46:30;;;;;;;8.88;1.52;;;;;;;;;;5027327;28;20041;-67
2021/12/07 00:48:56;;;;;;;19.65;1.63;;;;;;;;;;5022297;28;20079;-67
2021/12/07 00:51:21;;;;;;;17.33;1.60;;;;;;;;;;5023516;28;20052;-67
2021/12/07 00:53:47;;;;;;;15.77;2.05;;;;;;;;;;5025484;28;20116;-67
2021/12/07 00:56:12;;;;;;;10.43;1.80;;;;;;;;;;5023374;28;20033;-67
2021/12/07 00:58:38;;;;;;;12.18;1.67;;;;;;;;;;5024432;28;20472;-66
2021/12/07 01:01:10;;;;;;;15.45;1.30;;;;;;;;;;5020358;28;20068;-66
2021/12/07 01:03:36;;;;;;;12.45;1.42;;;;;;;;;;5023940;28;20080;-67
2021/12/07 01:06:16;;;;;;;12.88;1.52;;;;;;;;;;5024865;28;20434;-67
2021/12/07 01:25:16;;;;;;;11.07;1.23;;;;;;;;;;5028255;28;20099;-67
2021/12/07 01:27:44;;;;;;;18.55;1.88;;;;;;;;;;5026807;28;20025;-67
2021/12/07 01:30:17;;;;;;;8.63;0.77;;;;;;;;;;5027699;28;20040;-67
2021/12/07 01:33:27;;;;;;;11.10;1.10;;;;;;;;;;5026832;28;20037;-66
2021/12/07 01:38:25;;;;;;;15.68;1.70;;;;;;;;;;5027442;28;20049;-67
2021/12/07 01:44:00;;;;;;;18.90;1.80;;;;;;;;;;5026398;28;20026;-66
2021/12/07 01:59:49;;;;;;;18.30;1.33;;;;;;;;;;5022296;28;20036;-67
2021/12/07 02:02:17;;;;;;;6.10;0.88;;;;;;;;;;5023927;28;20110;-67
2021/12/07 02:04:44;;;;;;;9.18;1.00;;;;;;;;;;5023923;28;20079;-66
2021/12/07 02:07:10;;;;;;;18.08;1.48;;;;;;;;;;5024617;28;20067;-66
2021/12/07 02:09:39;;;;;;;11.25;1.38;;;;;;;;;;5028290;28;20037;-66
2021/12/07 02:12:06;;;;;;;10.77;0.88;;;;;;;;;;5026375;28;21569;-66
2021/12/07 02:14:32;;;;;;;14.95;1.20;;;;;;;;;;5028052;28;20033;-66
2021/12/07 02:17:00;;;;;;;21.55;1.35;;;;;;;;;;5025816;28;20041;-67
2021/12/07 02:19:26;;;;;;;15.10;1.42;;;;;;;;;;5025809;28;20511;-66
2021/12/07 02:21:53;;;;;;;11.52;1.23;;;;;;;;;;5027672;28;20033;-67
2021/12/07 02:24:19;;;;;;;14.20;0.98;;;;;;;;;;5028077;28;20144;-66
2021/12/07 02:26:47;;;;;;;6.95;1.00;;;;;;;;;;5027252;28;20124;-65
2021/12/07 02:29:13;;;;;;;19.50;1.13;;;;;;;;;;5027313;28;20112;-66
2021/12/07 02:31:39;;;;;;;9.13;0.90;;;;;;;;;;5025628;28;20037;-66
2021/12/07 02:34:05;;;;;;;7.13;1.00;;;;;;;;;;5028001;28;20026;-66
2021/12/07 02:36:31;;;;;;;8.52;0.75;;;;;;;;;;5026875;28;20033;-67
2021/12/07 02:38:57;;;;;;;10.85;0.80;;;;;;;;;;5028584;28;20095;-66
2021/12/07 02:41:23;;;;;;;5.30;0.63;;;;;;;;;;5026358;28;20129;-66
2021/12/07 02:43:49;;;;;;;12.98;1.05;;;;;;;;;;5024291;28;20116;-66
2021/12/07 02:46:14;;;;;;;9.45;0.73;;;;;;;;;;5029713;28;20049;-67
2021/12/07 02:48:40;;;;;;;9.13;1.27;;;;;;;;;;5027029;28;20038;-66
2021/12/07 02:51:06;;;;;;;9.55;1.17;;;;;;;;;;5027659;28;20083;-65
2021/12/07 02:53:34;;;;;;;7.20;0.80;;;;;;;;;;5027158;28;20721;-65
2021/12/07 02:56:01;;;;;;;11.45;0.70;;;;;;;;;;5027160;28;20037;-65
2021/12/07 02:58:27;;;;;;;9.35;1.10;;;;;;;;;;5026765;28;20508;-64
2021/12/07 03:01:03;;;;;;;13.35;1.02;;;;;;;;;;5026511;28;20118;-66
2021/12/07 03:03:34;;;;;;;14.68;1.17;;;;;;;;;;5024167;28;20033;-67
2021/12/07 03:27:53;;;;;;;10.25;0.85;;;;;;;;;;5026205;28;20036;-67
2021/12/07 03:30:19;;;;;;;16.88;1.25;;;;;;;;;;5027271;28;20528;-67
2021/12/07 03:32:45;;;;;;;14.15;1.50;;;;;;;;;;5022579;28;20029;-67
2021/12/07 03:35:10;;;;;;;17.38;1.15;;;;;;;;;;5025709;28;20042;-66
2021/12/07 03:37:36;;;;;;;13.93;0.85;;;;;;;;;;5026350;28;20049;-66
2021/12/07 03:40:02;;;;;;;22.50;1.20;;;;;;;;;;5023432;28;20049;-66
2021/12/07 03:42:28;;;;;;;14.60;1.58;;;;;;;;;;5023035;28;20132;-67
2021/12/07 03:44:53;;;;;;;14.13;1.13;;;;;;;;;;5024772;28;20398;-67
2021/12/07 03:47:19;;;;;;;12.55;1.17;;;;;;;;;;5024831;28;20037;-68
2021/12/07 03:49:44;;;;;;;19.67;1.73;;;;;;;;;;5027051;28;20452;-67
2021/12/07 03:52:10;;;;;;;22.75;1.15;;;;;;;;;;5025424;28;20116;-67
2021/12/07 03:54:35;;;;;;;16.05;1.52;;;;;;;;;;5026325;28;20078;-66
2021/12/07 03:57:01;;;;;;;20.42;1.10;;;;;;;;;;5026473;28;20048;-65
2021/12/07 03:59:27;;;;;;;21.05;1.30;;;;;;;;;;5027739;28;20036;-67
2021/12/07 04:01:52;;;;;;;13.07;1.20;;;;;;;;;;5024010;28;20033;-67
2021/12/07 04:04:18;;;;;;;13.60;0.95;;;;;;;;;;5024864;28;20083;-67
2021/12/07 04:06:44;;;;;;;15.90;1.20;;;;;;;;;;5024993;28;20087;-66
2021/12/07 04:09:09;;;;;;;14.55;1.90;;;;;;;;;;5024898;28;20040;-66
2021/12/07 04:11:35;;;;;;;7.60;0.52;;;;;;;;;;5025574;28;20081;-65
2021/12/07 04:14:00;;;;;;;21.08;1.35;;;;;;;;;;5026285;28;20384;-65
2021/12/07 04:16:26;;;;;;;16.30;1.00;;;;;;;;;;5025167;28;20732;-65
2021/12/07 04:18:52;;;;;;;15.18;2.35;;;;;;;;;;5025520;28;20616;-65
2021/12/07 04:21:17;;;;;;;25.52;1.25;;;;;;;;;;5025187;28;20034;-65
2021/12/07 04:23:43;;;;;;;15.77;1.60;;;;;;;;;;5025265;28;20562;-65
2021/12/07 04:26:11;;;;;;;13.10;1.20;;;;;;;;;;5023210;28;20045;-65
2021/12/07 04:28:37;;;;;;;12.00;1.00;;;;;;;;;;5025267;28;20044;-66
2021/12/07 04:31:03;;;;;;;12.90;1.45;;;;;;;;;;5025234;28;20034;-66
2021/12/07 04:33:29;;;;;;;7.32;0.68;;;;;;;;;;5024718;28;20087;-66
2021/12/07 04:35:55;;;;;;;19.58;0.98;;;;;;;;;;5025607;28;20025;-66
2021/12/07 04:38:21;;;;;;;11.13;1.42;;;;;;;;;;5022413;28;20048;-66
2021/12/07 04:40:47;;;;;;;11.75;0.68;;;;;;;;;;5024770;28;20088;-65
2021/12/07 04:43:13;;;;;;;16.80;1.25;;;;;;;;;;5023931;28;20500;-66
2021/12/07 04:59:16;;;;;;;9.93;1.02;;;;;;;;;;5023539;28;20060;-65
2021/12/07 05:01:42;;;;;;;6.18;0.57;;;;;;;;;;5020846;28;20025;-67
2021/12/07 05:04:14;;;;;;;9.45;0.80;;;;;;;;;;5024988;28;20369;-65
2021/12/07 05:06:46;;;;;;;16.13;0.70;;;;;;;;;;5025685;28;20022;-64
2021/12/07 05:14:32;;;;;;;7.88;0.68;;;;;;;;;;5025658;28;20507;-65
2021/12/07 05:38:23;;;;;;;18.77;1.60;;;;;;;;;;5019783;28;20095;-63
2021/12/07 05:40:48;;;;;;;8.77;0.52;;;;;;;;;;5024023;28;20057;-63
2021/12/07 05:43:14;;;;;;;10.68;0.95;;;;;;;;;;5023916;28;20076;-63
2021/12/07 05:45:40;;;;;;;6.20;0.60;;;;;;;;;;5025361;28;20064;-63
2021/12/07 05:48:07;;;;;;;17.15;1.10;;;;;;;;;;5022263;28;20065;-63
2021/12/07 05:50:35;;;;;;;18.90;0.98;;;;;;;;;;5024052;28;20029;-62
2021/12/07 05:53:02;;;;;;;8.75;0.90;;;;;;;;;;5019816;28;20034;-63
2021/12/07 05:55:28;;;;;;;19.52;1.83;;;;;;;;;;5020917;28;20113;-63
2021/12/07 05:57:54;;;;;;;22.33;0.95;;;;;;;;;;5023677;28;20117;-62
2021/12/07 06:00:32;;;;;;;9.52;0.98;;;;;;;;;;5023662;28;20273;-63
2021/12/07 06:03:00;;;;;;;11.32;0.95;;;;;;;;;;5024139;28;20423;-63
2021/12/07 06:05:27;;;;;;;30.77;1.77;;;;;;;;;;5022245;28;20022;-63
2021/12/07 06:07:53;;;;;;;20.80;0.80;;;;;;;;;;5020580;28;20041;-63
2021/12/07 06:10:19;;;;;;;17.50;1.30;;;;;;;;;;5007402;28;20038;-63
2021/12/07 06:12:45;;;;;;;18.73;1.15;;;;;;;;;;5027091;28;20037;-65
2021/12/07 06:15:13;;;;;;;20.77;1.70;;;;;;;;;;5028090;28;20057;-66
2021/12/07 06:17:39;;;;;;;18.30;0.95;;;;;;;;;;5028141;28;20029;-68
2021/12/07 06:20:05;;;;;;;14.80;1.05;;;;;;;;;;5027273;28;20056;-67
2021/12/07 06:22:31;;;;;;;26.70;0.88;;;;;;;;;;5027339;28;20087;-66
2021/12/07 06:24:56;;;;;;;20.63;0.93;;;;;;;;;;5026752;28;20041;-67
2021/12/07 06:27:22;;;;;;;10.90;1.30;;;;;;;;;;5027862;28;20025;-66
2021/12/07 06:29:47;;;;;;;29.75;2.13;;;;;;;;;;5026237;28;20108;-67
2021/12/07 06:32:13;;;;;;;30.15;1.60;;;;;;;;;;5025451;28;20037;-67
2021/12/07 06:34:38;;;;;;;22.90;2.50;;;;;;;;;;5025593;28;20030;-67
2021/12/07 06:37:05;;;;;;;19.25;1.00;;;;;;;;;;5019105;28;20785;-68
2021/12/07 06:39:31;;;;;;;32.22;1.98;;;;;;;;;;5024680;28;20033;-66
2021/12/07 06:41:56;;;;;;;27.45;2.50;;;;;;;;;;5025871;28;20041;-67
2021/12/07 06:44:22;;;;;;;25.13;1.88;;;;;;;;;;5023771;28;20084;-67
2021/12/07 06:46:48;;;;;;;34.60;2.67;;;;;;;;;;5025849;28;20051;-67
2021/12/07 06:49:15;;;;;;;37.05;2.50;;;;;;;;;;5027169;28;20542;-67
2021/12/07 06:51:41;;;;;;;18.70;1.33;;;;;;;;;;5025217;28;20045;-66
2021/12/07 06:54:07;;;;;;;28.98;2.22;;;;;;;;;;5024853;28;20026;-67
2021/12/07 06:56:33;;;;;;;25.15;2.13;;;;;;;;;;5026485;28;20032;-65
2021/12/07 06:58:58;;;;;;;37.83;2.83;;;;;;;;;;5025884;28;20029;-66
2021/12/07 07:01:24;;;;;;;28.27;1.65;;;;;;;;;;5025140;28;20037;-66
2021/12/07 07:03:49;;;;;;;28.23;2.53;;;;;;;;;;5025161;28;20071;-65
2021/12/07 07:06:15;;;;;;;37.90;2.28;;;;;;;;;;5025434;28;20036;-66
2021/12/07 07:08:41;;;;;;;38.58;2.75;;;;;;;;;;5025613;28;20037;-67
2021/12/07 07:11:06;;;;;;;42.85;3.33;;;;;;;;;;5026525;28;20069;-66
2021/12/07 07:13:32;;;;;;;41.45;4.22;;;;;;;;;;5024765;28;20036;-66
2021/12/07 07:15:58;;;;;;;25.77;2.95;;;;;;;;;;5026118;28;20037;-67
2021/12/07 07:18:24;;;;;;;29.00;1.92;;;;;;;;;;5026511;28;20052;-66
2021/12/07 07:20:50;;;;;;;31.98;2.67;;;;;;;;;;5023778;28;20029;-68
2021/12/07 07:23:16;;;;;;;22.08;1.77;;;;;;;;;;5026631;28;20091;-59
2021/12/07 07:25:41;;;;;;;16.80;2.13;;;;;;;;;;5027617;28;20024;-58
2021/12/07 07:28:07;;;;;;;17.65;1.33;;;;;;;;;;5024743;28;20063;-59
2021/12/07 07:30:33;;;;;;;29.85;2.58;;;;;;;;;;5026181;28;20026;-59
2021/12/07 07:32:58;;;;;;;31.55;2.00;;;;;;;;;;5022512;28;20089;-59
2021/12/07 07:35:24;;;;;;;36.72;1.88;;;;;;;;;;5027565;28;20029;-59
2021/12/07 07:37:52;;;;;;;27.05;2.28;;;;;;;;;;5024935;28;20068;-59
2021/12/07 07:40:20;;;;;;;27.38;2.30;;;;;;;;;;5023875;28;20038;-58
2021/12/07 07:42:46;;;;;;;49.58;2.88;;;;;;;;;;5023799;28;20082;-58
2021/12/07 07:45:12;;;;;;;43.83;2.28;;;;;;;;;;5023268;28;20064;-58
2021/12/07 07:47:38;;;;;;;33.35;3.30;;;;;;;;;;5024671;28;20041;-57
2021/12/07 07:50:06;;;;;;;33.42;3.47;;;;;;;;;;5022575;28;20086;-60
2021/12/07 07:52:32;;;;;;;27.70;2.25;;;;;;;;;;5025528;28;20427;-61
2021/12/07 07:54:57;;;;;;;33.65;2.30;;;;;;;;;;5025682;28;20123;-58
2021/12/07 07:57:23;;;;;;;23.27;3.17;;;;;;;;;;5025835;28;20041;-59
2021/12/07 07:59:48;;;;;;;32.20;1.83;;;;;;;;;;5024937;28;20049;-61
2021/12/07 08:02:14;;;;;;;19.65;1.88;;;;;;;;;;5022627;28;20040;-59
2021/12/07 08:04:40;;;;;;;34.22;1.85;;;;;;;;;;5025272;28;20030;-59
2021/12/07 08:07:05;;;;;;;22.13;2.08;;;;;;;;;;5021545;28;20037;-59
2021/12/07 08:09:31;;;;;;;33.05;2.55;;;;;;;;;;5026087;28;20087;-61
2021/12/07 08:11:57;;;;;;;22.33;1.75;;;;;;;;;;5021182;28;20506;-60
2021/12/07 08:14:23;;;;;;;32.28;2.53;;;;;;;;;;5024513;28;20021;-61
2021/12/07 08:16:49;;;;;;;36.83;2.65;;;;;;;;;;5024931;28;20684;-61
2021/12/07 08:19:14;;;;;;;37.63;4.10;;;;;;;;;;5023765;28;20489;-60
2021/12/07 08:21:40;;;;;;;27.58;2.15;;;;;;;;;;5024301;28;20041;-60
2021/12/07 08:24:05;;;;;;;34.20;2.65;;;;;;;;;;5023970;28;20076;-59
2021/12/07 08:26:32;;;;;;;27.50;1.70;;;;;;;;;;5023926;28;20063;-59
2021/12/07 08:28:59;;;;;;;26.95;1.58;;;;;;;;;;5024003;28;20028;-59
2021/12/07 08:31:26;;;;;;;22.08;2.08;;;;;;;;;;5022939;28;20041;-59
2021/12/07 08:33:52;;;;;;;26.50;1.58;;;;;;;;;;5024662;28;20033;-59
2021/12/07 08:36:18;;;;;;;32.30;1.58;;;;;;;;;;5025218;28;20033;-59
2021/12/07 08:38:44;;;;;;;20.25;2.30;;;;;;;;;;5022925;28;20067;-63
2021/12/07 08:41:12;;;;;;;10.93;1.00;;;;;;;;;;5004492;28;20123;-65
2021/12/07 08:43:40;;;;;;;14.27;0.82;;;;;;;;;;5024263;28;20121;-65
2021/12/07 08:46:07;;;;;;;11.10;1.20;;;;;;;;;;5025078;28;20494;-64
2021/12/07 08:48:36;;;;;;;12.98;1.35;;;;;;;;;;5025937;28;20499;-67
2021/12/07 08:51:04;;;;;;;15.02;0.88;;;;;;;;;;5025058;28;20037;-68
2021/12/07 08:53:30;;;;;;;14.43;0.93;;;;;;;;;;5023832;28;20071;-60
2021/12/07 09:01:28;;;;;;;16.17;1.90;;;;;;;;;;5025580;28;20527;-65
2021/12/07 09:03:55;;;;;;;20.60;1.75;;;;;;;;;;5026347;28;20129;-65
2021/12/07 09:06:21;;;;;;;20.00;1.25;;;;;;;;;;5026179;28;20295;-63
2021/12/07 09:08:47;;;;;;;26.60;1.77;;;;;;;;;;5023431;28;20029;-63
2021/12/07 09:11:13;;;;;;;23.25;1.73;;;;;;;;;;5023927;28;20041;-65
2021/12/07 09:13:40;;;;;;;30.23;3.30;;;;;;;;;;5018644;28;20521;-63
2021/12/07 09:16:07;;;;;;;22.88;2.17;;;;;;;;;;5027867;28;20158;-62
2021/12/07 09:18:33;;;;;;;37.75;2.35;;;;;;;;;;5025664;28;20025;-63
2021/12/07 09:21:00;;;;;;;20.08;1.20;;;;;;;;;;5026301;28;20078;-64
2021/12/07 09:23:26;;;;;;;18.38;1.75;;;;;;;;;;5024192;28;20182;-63
2021/12/07 09:25:52;;;;;;;19.30;1.30;;;;;;;;;;5025291;28;20157;-60
2021/12/07 09:28:18;;;;;;;18.08;1.48;;;;;;;;;;5024477;28;20363;-65
2021/12/07 09:30:50;;;;;;;19.15;1.50;;;;;;;;;;5026043;28;20025;-63
2021/12/07 09:33:25;;;;;;;24.90;1.63;;;;;;;;;;5022702;28;20026;-61
2021/12/07 09:35:51;;;;;;;12.75;1.23;;;;;;;;;;5026626;28;20037;-64
2021/12/07 09:38:17;;;;;;;12.38;1.40;;;;;;;;;;5025589;28;20385;-61
2021/12/07 09:40:43;;;;;;;32.35;3.22;;;;;;;;;;5024688;28;20056;-62
2021/12/07 09:43:11;;;;;;;27.60;2.85;;;;;;;;;;5025469;28;20048;-63
2021/12/07 09:45:37;;;;;;;37.20;3.03;;;;;;;;;;5026034;28;20404;-64
2021/12/07 09:48:05;;;;;;;31.58;2.65;;;;;;;;;;5027300;28;20034;-60
2021/12/07 09:50:33;;;;;;;44.75;2.88;;;;;;;;;;5028873;28;20033;-59
2021/12/07 09:52:58;;;;;;;34.70;2.55;;;;;;;;;;5029688;28;20041;-60
2021/12/07 09:55:25;;;;;;;41.90;3.75;;;;;;;;;;5029754;28;20060;-58
2021/12/07 09:57:52;;;;;;;32.08;2.90;;;;;;;;;;5029168;28;20400;-60
2021/12/07 10:00:21;;;;;;;56.95;3.20;;;;;;;;;;5029333;28;20484;-60
2021/12/07 10:02:47;;;;;;;53.60;4.68;;;;;;;;;;5029838;28;20033;-61
2021/12/07 10:05:16;;;;;;;59.05;4.63;;;;;;;;;;5028416;28;20139;-60
2021/12/07 10:07:42;;;;;;;40.22;3.95;;;;;;;;;;5027650;28;20029;-59
2021/12/07 10:10:17;;;;;;;45.20;4.03;;;;;;;;;;5029019;28;20029;-60
2021/12/07 10:12:42;;;;;;;46.22;2.92;;;;;;;;;;5027117;28;20071;-62
2021/12/07 10:15:09;;;;;;;32.97;2.88;;;;;;;;;;5029066;28;20025;-66
2021/12/07 10:17:37;;;;;;;45.85;4.57;;;;;;;;;;5028177;28;20032;-60
2021/12/07 10:20:22;;;;;;;38.92;3.05;;;;;;;;;;5028342;28;20029;-62
2021/12/07 10:22:50;;;;;;;47.65;5.20;;;;;;;;;;5023013;28;20508;-61
2021/12/07 10:25:26;;;;;;;39.47;3.50;;;;;;;;;;5028875;28;20036;-63
2021/12/07 10:27:52;;;;;;;27.10;2.22;;;;;;;;;;5029031;28;20033;-64
2021/12/07 10:30:21;;;;;;;32.15;1.90;;;;;;;;;;5027711;28;20076;-63
2021/12/07 10:33:04;;;;;;;34.33;2.70;;;;;;;;;;5023433;28;20092;-63
2021/12/07 10:35:33;;;;;;;36.67;2.53;;;;;;;;;;5027075;28;20117;-60
2021/12/07 10:38:09;;;;;;;34.47;2.65;;;;;;;;;;5027041;28;20040;-59
2021/12/07 10:40:35;;;;;;;44.58;2.63;;;;;;;;;;5026399;28;20412;-60
2021/12/07 10:43:01;;;;;;;24.90;2.53;;;;;;;;;;5028693;28;20045;-60
2021/12/07 10:45:30;;;;;;;30.63;2.53;;;;;;;;;;5028113;28;20034;-59
2021/12/07 10:47:55;;;;;;;28.50;2.92;;;;;;;;;;5008338;28;20037;-61
2021/12/07 10:50:21;;;;;;;56.35;4.15;;;;;;;;;;5028128;28;20040;-57
2021/12/07 10:52:46;;;;;;;57.63;6.03;;;;;;;;;;5029387;28;20491;-56
2021/12/07 10:55:16;;;;;;;53.60;3.20;;;;;;;;;;5026102;28;20512;-62
2021/12/07 10:57:46;;;;;;;48.05;4.20;;;;;;;;;;5028207;28;20064;-61
2021/12/07 11:00:26;;;;;;;34.50;3.28;;;;;;;;;;5028481;28;20029;-61
2021/12/07 11:02:56;;;;;;;18.77;2.50;;;;;;;;;;5025481;28;20371;-62
2021/12/07 11:05:31;;;;;;;24.77;3.83;;;;;;;;;;5027628;28;20035;-61
2021/12/07 11:07:58;;;;;;;39.28;4.93;;;;;;;;;;5027049;28;20037;-68
2021/12/07 11:10:30;;;;;;;29.48;3.80;;;;;;;;;;5027905;28;20089;-66
2021/12/07 11:15:34;;;;;;;34.80;3.38;;;;;;;;;;5027463;28;20041;-62
2021/12/07 11:18:06;;;;;;;20.58;2.60;;;;;;;;;;5027741;28;20091;-61
2021/12/07 11:20:32;;;;;;;30.08;2.60;;;;;;;;;;5025252;28;20026;-63
2021/12/07 11:23:01;;;;;;;21.30;2.83;;;;;;;;;;5027950;28;20563;-63
2021/12/07 11:31:40;;;;;;;31.50;3.03;;;;;;;;;;5024082;28;20562;-61
2021/12/07 11:34:15;;;;;;;33.80;3.30;;;;;;;;;;5026968;28;20033;-63
2021/12/07 11:36:43;;;;;;;26.63;3.17;;;;;;;;;;5027668;28;20068;-62
2021/12/07 11:39:28;;;;;;;22.88;2.40;;;;;;;;;;5026479;28;20124;-66
2021/12/07 11:42:04;;;;;;;22.73;2.45;;;;;;;;;;5027753;28;20052;-59
2021/12/07 11:44:32;;;;;;;22.38;3.70;;;;;;;;;;5025061;28;20020;-64
2021/12/07 11:47:00;;;;;;;21.83;2.17;;;;;;;;;;5019627;28;20040;-53
2021/12/07 11:49:30;;;;;;;28.58;2.53;;;;;;;;;;5022746;28;20020;-51
2021/12/07 11:51:58;;;;;;;33.25;4.00;;;;;;;;;;5023158;28;20214;-54
2021/12/07 11:54:31;;;;;;;29.38;3.17;;;;;;;;;;5026727;28;20039;-52
2021/12/07 11:56:59;;;;;;;21.00;2.50;;;;;;;;;;5026573;28;20562;-53
2021/12/07 11:59:24;;;;;;;32.75;3.47;;;;;;;;;;5025965;28;20132;-53
2021/12/07 12:01:52;;;;;;;38.97;3.58;;;;;;;;;;5026368;28;23132;-51
2021/12/07 12:04:19;;;;;;;33.45;5.60;;;;;;;;;;5025369;28;20033;-53
2021/12/07 12:06:56;;;;;;;32.40;4.32;;;;;;;;;;5026847;28;20040;-52
2021/12/07 12:09:24;;;;;;;19.30;2.90;;;;;;;;;;5024812;28;20677;-47
2021/12/07 12:11:49;;;;;;;27.90;3.85;;;;;;;;;;5025863;28;20065;-54
2021/12/07 12:14:34;;;;;;;20.25;2.03;;;;;;;;;;5024334;28;20056;-52
2021/12/07 12:17:27;;;;;;;19.65;3.45;;;;;;;;;;5023943;28;20057;-49
2021/12/07 12:20:25;;;;;;;38.45;3.00;;;;;;;;;;5021791;28;20026;-49
2021/12/07 12:23:10;;;;;;;18.20;2.70;;;;;;;;;;5026757;28;20115;-49
2021/12/07 12:25:36;;;;;;;17.00;2.70;;;;;;;;;;5024411;28;20060;-52
2021/12/07 12:28:03;;;;;;;10.77;1.70;;;;;;;;;;5024938;28;20412;-53
2021/12/07 12:30:32;;;;;;;28.88;1.95;;;;;;;;;;5026822;28;20123;-50
2021/12/07 12:33:06;;;;;;;15.98;1.98;;;;;;;;;;5024168;28;20233;-59
2021/12/07 12:35:41;;;;;;;14.02;1.80;;;;;;;;;;5023682;28;20099;-47
2021/12/07 12:38:19;;;;;;;5.47;0.70;;;;;;;;;;5023791;28;20072;-53
2021/12/07 12:41:03;;;;;;;15.25;2.03;;;;;;;;;;5027091;28;20050;-58
2021/12/07 12:43:57;;;;;;;18.30;2.00;;;;;;;;;;5024345;28;20025;-55
2021/12/07 12:46:26;;;;;;;17.13;2.72;;;;;;;;;;5024154;28;20108;-57
2021/12/07 12:48:58;;;;;;;17.92;2.22;;;;;;;;;;5026502;28;20550;-58
2021/12/07 12:51:28;;;;;;;5.67;1.43;;;;;;;;;;5026181;28;20035;-57
2021/12/07 12:53:54;;;;;;;27.23;3.00;;;;;;;;;;5026756;28;20278;-58
2021/12/07 12:56:26;;;;;;;21.15;1.85;;;;;;;;;;5023713;28;20052;-59
2021/12/07 12:58:57;;;;;;;17.25;3.03;;;;;;;;;;5025590;28;20376;-58
2021/12/07 13:01:34;;;;;;;14.75;2.25;;;;;;;;;;5026485;28;20029;-58
2021/12/07 13:04:13;;;;;;;23.08;3.20;;;;;;;;;;5025894;28;20488;-58
2021/12/07 13:06:53;;;;;;;21.25;2.38;;;;;;;;;;5019105;28;20118;-58
2021/12/07 13:09:18;;;;;;;27.98;2.55;;;;;;;;;;5025509;28;20029;-59
2021/12/07 13:11:51;;;;;;;15.57;2.25;;;;;;;;;;5026593;28;20040;-59
2021/12/07 13:14:19;;;;;;;21.45;1.60;;;;;;;;;;5030084;28;20025;-58
2021/12/07 13:16:52;;;;;;;21.23;1.90;;;;;;;;;;5024501;28;20029;-58
2021/12/07 13:19:18;;;;;;;26.08;2.08;;;;;;;;;;5024929;28;20048;-59
2021/12/07 13:21:46;;;;;;;18.02;2.58;;;;;;;;;;5026079;28;20037;-57
2021/12/07 13:24:20;;;;;;;27.02;2.60;;;;;;;;;;5026399;28;20486;-56
2021/12/07 13:26:52;;;;;;;30.35;2.42;;;;;;;;;;5025402;28;20029;-55
2021/12/07 13:29:21;;;;;;;21.88;2.05;;;;;;;;;;5025961;28;20034;-55
2021/12/07 13:31:53;;;;;;;36.00;2.28;;;;;;;;;;5030924;28;20022;-55
2021/12/07 13:34:35;;;;;;;17.25;1.83;;;;;;;;;;5025649;28;20021;-59
2021/12/07 13:37:02;;;;;;;;;;;;;;;;;;5024415;28;20037;-58
2021/12/07 13:39:32;;;;;;;37.40;2.65;;;;;;;;;;5025179;28;19956;-57
2021/12/07 13:42:07;;;;;;;31.35;2.75;;;;;;;;;;5026255;28;20030;-58
2021/12/07 13:44:39;;;;;;;23.30;2.58;;;;;;;;;;5025557;28;20385;-58
2021/12/07 13:47:11;;;;;;;16.25;2.10;;;;;;;;;;5024834;28;20030;-57
2021/12/07 13:49:37;;;;;;;12.73;1.80;;;;;;;;;;5026389;28;20052;-58
2021/12/07 13:52:09;;;;;;;20.00;2.30;;;;;;;;;;5025826;28;20496;-64
2021/12/07 13:54:40;;;;;;;23.17;1.77;;;;;;;;;;5026014;28;20021;-59
2021/12/07 13:57:06;;;;;;;18.08;2.08;;;;;;;;;;5022694;28;20090;-68
2021/12/07 13:59:32;;;;;;;15.90;1.92;;;;;;;;;;5025694;28;20443;-60
2021/12/07 14:01:58;;;;;;;10.43;1.60;;;;;;;;;;5024404;28;20038;-59
2021/12/07 14:04:27;;;;;;;8.18;1.05;;;;;;;;;;5025150;28;20068;-59
2021/12/07 14:06:53;;;;;;;11.23;1.50;;;;;;;;;;5025624;28;20095;-58
2021/12/07 14:09:20;;;;;;;19.85;1.42;;;;;;;;;;5026127;28;20040;-59
2021/12/07 14:11:54;;;;;;;9.75;1.40;;;;;;;;;;5025559;28;20032;-62
2021/12/07 14:14:20;;;;;;;14.88;1.13;;;;;;;;;;5024886;28;20037;-62
2021/12/07 14:16:46;;;;;;;10.73;1.17;;;;;;;;;;5024919;28;20045;-59
2021/12/07 14:19:11;;;;;;;5.45;0.73;;;;;;;;;;5025512;28;20041;-59
2021/12/07 14:21:37;;;;;;;3.25;0.70;;;;;;;;;;5026082;28;20021;-60
2021/12/07 14:24:08;;;;;;;5.75;1.50;;;;;;;;;;5025307;28;20041;-60
2021/12/07 14:26:37;;;;;;;6.95;0.52;;;;;;;;;;5024930;28;20033;-59
2021/12/07 14:29:04;;;;;;;3.85;0.35;;;;;;;;;;5018569;28;20635;-61
2021/12/07 14:31:36;;;;;;;4.72;0.90;;;;;;;;;;5025515;28;20064;-57
2021/12/07 14:34:08;;;;;;;5.47;0.87;;;;;;;;;;5025559;28;20174;-61
2021/12/07 14:36:47;;;;;;;9.02;0.85;;;;;;;;;;5028482;28;20025;-57
2021/12/07 14:39:21;;;;;;;2.83;0.40;;;;;;;;;;5027587;28;20550;-59
2021/12/07 14:41:54;;;;;;;1.50;0.40;;;;;;;;;;5028759;28;20041;-57
2021/12/07 14:44:23;;;;;;;4.68;0.68;;;;;;;;;;5023646;28;20480;-56
2021/12/07 14:46:50;;;;;;;5.13;0.60;;;;;;;;;;5029041;28;20049;-56
2021/12/07 14:49:16;;;;;;;2.58;0.70;;;;;;;;;;5028732;28;20083;-56
2021/12/07 14:51:43;;;;;;;13.40;0.90;;;;;;;;;;5028971;28;20041;-57
2021/12/07 14:54:11;;;;;;;11.98;1.23;;;;;;;;;;5028383;28;20515;-57
2021/12/07 14:56:37;;;;;;;11.43;0.70;;;;;;;;;;5026871;28;20039;-58
2021/12/07 14:59:09;;;;;;;4.30;0.65;;;;;;;;;;5028799;28;20496;-57
2021/12/07 15:01:37;;;;;;;;;;;;;;;;;;5028457;28;20084;-60
2021/12/07 15:04:06;;;;;;;4.00;0.85;;;;;;;;;;5026806;28;19917;-56
2021/12/07 15:06:33;;;;;;;6.60;0.63;;;;;;;;;;5024663;28;21855;-65
2021/12/07 15:09:04;;;;;;;3.38;0.50;;;;;;;;;;5028340;28;20350;-54
2021/12/07 15:11:30;;;;;;;9.23;1.00;;;;;;;;;;5028014;28;20463;-56
2021/12/07 15:13:55;;;;;;;5.82;0.43;;;;;;;;;;5029210;28;20029;-54
2021/12/07 15:16:21;;;;;;;5.47;0.63;;;;;;;;;;5026679;28;20068;-53
2021/12/07 15:18:49;;;;;;;1.13;0.35;;;;;;;;;;5026469;28;20100;-58
2021/12/07 15:21:23;;;;;;;2.70;0.52;;;;;;;;;;5024770;28;20449;-63
2021/12/07 15:23:54;;;;;;;0.70;0.20;;;;;;;;;;5027990;28;20035;-58
2021/12/07 15:26:24;;;;;;;3.93;0.67;;;;;;;;;;5028193;28;20037;-58
2021/12/07 15:29:09;;;;;;;3.20;0.55;;;;;;;;;;5028240;28;20025;-60
2021/12/07 15:31:38;;;;;;;1.67;0.22;;;;;;;;;;5028516;28;20492;-61
2021/12/07 15:34:06;;;;;;;0.95;0.20;;;;;;;;;;5028598;28;20026;-57
2021/12/07 15:36:36;;;;;;;0.88;0.30;;;;;;;;;;5028284;28;20014;-56
2021/12/07 15:39:23;;;;;;;3.08;0.57;;;;;;;;;;5027810;28;20068;-54
2021/12/07 15:41:54;;;;;;;35.88;0.57;;;;;;;;;;5027388;28;20117;-54
2021/12/07 15:44:31;;;;;;;2.38;0.68;;;;;;;;;;5026712;28;20029;-53
2021/12/07 15:47:00;;;;;;;4.60;1.15;;;;;;;;;;5027769;28;20041;-56
2021/12/07 15:49:35;;;;;;;2.15;0.40;;;;;;;;;;5027246;28;20033;-55
2021/12/07 15:52:08;;;;;;;3.50;0.55;;;;;;;;;;5028266;28;20040;-55
2021/12/07 15:54:33;;;;;;;2.10;0.43;;;;;;;;;;5027622;28;20496;-56
2021/12/07 15:57:04;;;;;;;1.25;0.50;;;;;;;;;;5025923;28;20140;-56
2021/12/07 15:59:32;;;;;;;2.50;0.45;;;;;;;;;;5026588;28;20029;-56
2021/12/07 16:01:58;;;;;;;0.20;0.10;;;;;;;;;;5022371;28;20083;-61
2021/12/07 16:04:28;;;;;;;0.85;0.20;;;;;;;;;;5023523;28;20037;-53
2021/12/07 16:06:54;;;;;;;2.70;0.28;;;;;;;;;;5023132;28;20045;-56
2021/12/07 16:09:20;;;;;;;4.15;0.57;;;;;;;;;;5024337;28;20039;-56
2021/12/07 16:11:46;;;;;;;0.75;0.28;;;;;;;;;;5024888;28;20037;-57
2021/12/07 16:14:26;;;;;;;0.17;0.10;;;;;;;;;;5022965;28;20025;-52
2021/12/07 16:16:53;;;;;;;0.20;0.10;;;;;;;;;;5023926;28;20021;-54
2021/12/07 16:19:20;;;;;;;1.67;0.22;;;;;;;;;;5025905;28;20047;-49
2021/12/07 16:21:46;;;;;;;0.82;0.35;;;;;;;;;;5021579;28;20488;-57
2021/12/07 16:24:12;;;;;;;1.65;0.30;;;;;;;;;;5024037;28;20083;-58
2021/12/07 16:26:38;;;;;;;0.82;0.20;;;;;;;;;;5025896;28;20025;-60
2021/12/07 16:29:08;;;;;;;0.70;0.20;;;;;;;;;;5026153;28;20059;-59
2021/12/07 16:31:36;;;;;;;1.40;0.47;;;;;;;;;;5025864;28;20021;-59
2021/12/07 16:34:02;;;;;;;1.88;0.50;;;;;;;;;;5026776;28;20492;-60
2021/12/07 16:36:29;;;;;;;1.35;0.32;;;;;;;;;;5026368;28;20021;-61